Justus, Ohio
Current Conditions -  °F | °C
As of 8:51 AM on Wednesday 26 Nov 2014 (Local Time) from KCAK Reporting Station
Overcast Overcast  
Wind Chill: 23°   Ceiling: 11000
Heat Index: 31°   Visibility: 10mi
Dew Point: 24°   Wind: 9mph
Humidity: 76%   Direction: 30°NNE
Pressure: 30.08"   Gusts: NA
Location:  40.7079°N, 81.5547°W
Report Text: KCAK 261351Z 03008KT 10SM SCT032 BKN110 OVC220 M01/M04 A3008 RMK AO2 SLP199 T10061044
Loading
Personal Weather Stations






























Interactive Weather Map New forecast layout! Learn more

10-Day Weather Forecast

Advertisements
Track Severe Weather on mobile